createdAt,value
2023-03-10T00:02:07.402Z,83.10
2023-03-10T00:04:37.846Z,83.20
2023-03-10T00:07:08.433Z,83.20
2023-03-10T00:09:39.082Z,83.30
2023-03-10T00:12:08.995Z,83.00
2023-03-10T00:14:42.318Z,83.20
2023-03-10T00:17:11.799Z,83.20
2023-03-10T00:19:41.195Z,83.20
2023-03-10T00:22:10.640Z,83.10
2023-03-10T00:24:40.116Z,83.00
2023-03-10T00:27:10.850Z,83.00
2023-03-10T00:29:40.833Z,82.80
2023-03-10T00:32:11.451Z,82.90
2023-03-10T00:34:42.340Z,82.80
2023-03-10T00:37:12.910Z,83.10
2023-03-10T00:39:42.883Z,83.10
2023-03-10T00:42:12.307Z,83.00
2023-03-10T00:44:41.655Z,83.10
2023-03-10T00:47:11.028Z,82.90
2023-03-10T00:49:41.692Z,82.90
2023-03-10T00:52:12.714Z,82.80
2023-03-10T00:54:43.472Z,83.20
2023-03-10T00:57:12.868Z,83.30
2023-03-10T00:59:50.283Z,83.30
2023-03-10T01:02:16.723Z,83.20
2023-03-10T01:04:46.348Z,83.20
2023-03-10T01:07:15.926Z,83.00
2023-03-10T01:09:45.351Z,83.00
2023-03-10T01:12:16.018Z,83.30
2023-03-10T01:14:50.199Z,83.40
2023-03-10T01:17:20.959Z,83.60
2023-03-10T01:19:50.501Z,83.40
2023-03-10T01:22:19.947Z,83.60
2023-03-10T01:24:49.484Z,83.50
2023-03-10T01:27:19.810Z,83.60
2023-03-10T01:29:48.442Z,83.50
2023-03-10T01:32:18.804Z,83.60
2023-03-10T01:34:48.303Z,83.60
2023-03-10T01:37:18.939Z,83.80
2023-03-10T01:39:49.486Z,84.00
2023-03-10T01:42:20.189Z,84.10
2023-03-10T01:48:37.981Z,83.70
2023-03-10T01:51:07.499Z,84.10
2023-03-10T01:53:37.018Z,83.90
2023-03-10T01:56:08.130Z,83.90
2023-03-10T02:05:09.331Z,83.90
2023-03-10T02:07:41.005Z,84.10
2023-03-10T02:13:43.657Z,84.00
2023-03-10T02:16:13.663Z,83.80
2023-03-10T02:18:51.592Z,83.80
2023-03-10T02:31:40.990Z,84.00
2023-03-10T02:34:11.707Z,84.10
2023-03-10T02:36:44.901Z,83.90
2023-03-10T02:39:15.411Z,84.00
2023-03-10T02:41:46.762Z,84.20
2023-03-10T02:47:17.870Z,84.20
2023-03-10T02:49:50.239Z,84.50
2023-03-10T02:58:59.410Z,84.20
2023-03-10T03:01:32.343Z,84.20
2023-03-10T03:04:04.909Z,84.20
2023-03-10T03:06:34.541Z,84.20
2023-03-10T03:09:05.415Z,83.90
2023-03-10T03:11:36.486Z,84.60
2023-03-10T03:14:07.811Z,84.40
2023-03-10T03:16:46.844Z,84.60
2023-03-10T03:19:16.298Z,84.00
2023-03-10T03:21:48.504Z,83.80
2023-03-10T03:24:34.230Z,84.20
2023-03-10T03:27:06.329Z,84.10
2023-03-10T03:29:38.949Z,84.30
2023-03-10T03:32:09.133Z,84.20
2023-03-10T03:34:39.157Z,84.30
2023-03-10T03:37:08.691Z,84.40
2023-03-10T03:39:41.209Z,84.30
2023-03-10T03:42:12.084Z,84.30
2023-03-10T03:51:55.169Z,84.00
2023-03-10T03:54:26.477Z,84.20
2023-03-10T03:56:56.110Z,84.30
2023-03-10T03:59:31.777Z,84.40
2023-03-10T04:05:31.856Z,84.40
2023-03-10T04:08:01.487Z,84.40
2023-03-10T04:10:33.771Z,84.50
2023-03-10T04:13:05.012Z,84.70
2023-03-10T04:18:37.417Z,84.40
2023-03-10T04:21:08.578Z,84.60
2023-03-10T04:30:03.494Z,84.40
2023-03-10T04:32:34.709Z,84.60
2023-03-10T04:39:16.908Z,84.40
2023-03-10T04:45:12.639Z,84.40
2023-03-10T04:47:44.698Z,84.50
2023-03-10T04:57:06.233Z,84.40
2023-03-10T04:59:38.489Z,84.30
2023-03-10T05:02:07.951Z,84.50
2023-03-10T05:10:13.900Z,84.40
2023-03-10T05:16:15.175Z,84.40
2023-03-10T05:18:48.697Z,84.50
2023-03-10T05:21:46.706Z,84.40
2023-03-10T05:24:31.236Z,84.40
2023-03-10T05:27:02.659Z,84.40
2023-03-10T05:30:10.972Z,84.60
2023-03-10T05:39:44.730Z,84.50
2023-03-10T05:42:19.036Z,84.60
2023-03-10T05:44:49.927Z,84.50
2023-03-10T05:47:21.074Z,84.60
2023-03-10T05:49:55.719Z,84.50
2023-03-10T05:52:29.846Z,84.80
2023-03-10T05:54:59.771Z,84.60
2023-03-10T05:57:29.135Z,84.50
2023-03-10T06:00:35.598Z,84.50
2023-03-10T06:03:05.108Z,84.60
2023-03-10T06:05:34.460Z,84.70
2023-03-10T06:08:04.868Z,84.60
2023-03-10T06:11:11.653Z,84.60
2023-03-10T06:13:53.839Z,84.80
2023-03-10T06:19:30.972Z,85.00
2023-03-10T06:22:16.253Z,85.20
2023-03-10T06:24:49.152Z,85.50
2023-03-10T06:27:18.556Z,86.00
2023-03-10T06:29:59.721Z,86.30
2023-03-10T06:32:39.539Z,86.50
2023-03-10T06:38:53.443Z,86.80
2023-03-10T06:41:23.301Z,86.80
2023-03-10T06:47:11.424Z,87.30
2023-03-10T06:49:54.191Z,87.40
2023-03-10T06:52:23.803Z,87.40
2023-03-10T07:04:53.552Z,88.00
2023-03-10T07:07:42.294Z,87.90
2023-03-10T07:10:25.097Z,87.90
2023-03-10T07:15:49.950Z,88.40
2023-03-10T07:31:25.518Z,88.60
2023-03-10T07:33:55.127Z,88.40
2023-03-10T07:36:24.641Z,88.40
2023-03-10T07:39:04.615Z,88.50
2023-03-10T07:41:53.421Z,88.60
2023-03-10T07:44:22.847Z,88.40
2023-03-10T07:46:52.257Z,88.50
2023-03-10T07:52:59.506Z,88.50
2023-03-10T07:55:28.714Z,88.30
2023-03-10T07:58:18.826Z,88.30
2023-03-10T08:07:09.270Z,88.40
2023-03-10T08:09:58.315Z,88.40
2023-03-10T08:12:38.167Z,88.50
2023-03-10T08:15:19.866Z,88.60
2023-03-10T08:18:20.125Z,88.40
2023-03-10T08:27:21.658Z,88.90
2023-03-10T08:32:41.649Z,88.90
2023-03-10T08:35:23.628Z,89.00
2023-03-10T08:38:05.864Z,89.00
2023-03-10T08:40:35.292Z,88.90
2023-03-10T08:46:37.763Z,89.00
2023-03-10T08:52:57.541Z,89.10
2023-03-10T08:55:46.977Z,89.10
2023-03-10T08:58:31.280Z,89.00
2023-03-10T09:04:32.176Z,89.00
2023-03-10T09:07:08.233Z,88.90
2023-03-10T09:09:43.304Z,88.60
2023-03-10T09:12:16.176Z,88.80
2023-03-10T09:14:47.008Z,88.40
2023-03-10T09:17:33.864Z,88.50
2023-03-10T09:20:13.782Z,88.40
2023-03-10T09:22:52.528Z,88.30
2023-03-10T09:25:23.158Z,88.20
2023-03-10T09:27:52.690Z,88.10
2023-03-10T09:30:24.726Z,87.90
2023-03-10T09:36:06.732Z,88.20
2023-03-10T10:04:39.882Z,87.70
2023-03-10T10:07:35.941Z,87.70
2023-03-10T10:26:02.667Z,88.40
2023-03-10T10:28:49.191Z,88.40
2023-03-10T10:31:21.789Z,88.40
2023-03-10T10:34:09.293Z,88.30
2023-03-10T10:39:38.818Z,88.60
2023-03-10T10:42:26.224Z,88.50
2023-03-10T10:44:58.787Z,88.50
2023-03-10T10:47:34.303Z,88.60
2023-03-10T10:50:18.964Z,88.70
2023-03-10T10:52:52.937Z,88.90
2023-03-10T10:55:31.698Z,88.90
2023-03-10T10:58:02.965Z,88.80
2023-03-10T11:00:37.061Z,88.80
2023-03-10T11:03:20.761Z,88.80
2023-03-10T11:05:50.253Z,88.90
2023-03-10T11:08:32.772Z,89.10
2023-03-10T11:11:07.847Z,89.00
2023-03-10T11:13:40.225Z,88.90
2023-03-10T11:16:15.423Z,89.00
2023-03-10T11:19:02.873Z,89.00
2023-03-10T11:21:35.298Z,88.90
2023-03-10T11:24:07.754Z,88.90
2023-03-10T11:27:04.433Z,89.00
2023-03-10T11:29:53.651Z,89.00
2023-03-10T11:32:28.817Z,89.00
2023-03-10T11:34:59.270Z,88.90
2023-03-10T11:37:40.509Z,88.90
2023-03-10T11:40:19.756Z,89.00
2023-03-10T11:42:54.985Z,89.00
2023-03-10T11:45:34.399Z,89.10
2023-03-10T11:48:30.823Z,89.10
2023-03-10T11:51:06.100Z,88.90
2023-03-10T11:53:53.981Z,89.00
2023-03-10T11:56:26.230Z,89.00
2023-03-10T11:59:19.967Z,89.00
2023-03-10T12:02:07.634Z,89.00
2023-03-10T12:04:52.381Z,89.20
2023-03-10T12:07:25.817Z,89.00
2023-03-10T12:10:01.566Z,89.00
2023-03-10T12:12:43.407Z,89.10
2023-03-10T12:15:32.552Z,88.90
2023-03-10T12:18:03.349Z,88.90
2023-03-10T12:20:34.349Z,89.00
2023-03-10T12:23:24.696Z,89.00
2023-03-10T12:25:53.736Z,89.00
2023-03-10T12:28:28.544Z,88.90
2023-03-10T12:31:06.448Z,89.10
2023-03-10T12:33:40.502Z,89.10
2023-03-10T12:36:16.015Z,89.20
2023-03-10T12:38:58.011Z,89.10
2023-03-10T12:42:08.826Z,89.30
2023-03-10T12:44:58.108Z,89.40
2023-03-10T12:47:56.397Z,89.40
2023-03-10T12:50:37.457Z,89.60
2023-03-10T12:53:28.244Z,89.60
2023-03-10T12:59:42.805Z,89.70
2023-03-10T13:02:50.684Z,90.00
2023-03-10T13:05:25.153Z,89.90
2023-03-10T13:07:57.566Z,90.00
2023-03-10T13:10:30.154Z,90.00
2023-03-10T13:19:26.105Z,89.60
2023-03-10T13:21:57.393Z,89.70
2023-03-10T13:24:32.543Z,89.70
2023-03-10T13:27:22.065Z,89.70
2023-03-10T13:30:16.407Z,89.60
2023-03-10T13:32:47.393Z,89.40
2023-03-10T13:47:53.021Z,89.60
2023-03-10T13:56:38.385Z,89.80
2023-03-10T14:05:38.219Z,89.70
2023-03-10T14:08:08.349Z,89.80
2023-03-10T14:10:37.880Z,89.80
2023-03-10T14:13:08.796Z,90.00
2023-03-10T14:16:14.597Z,89.80
2023-03-10T14:18:44.664Z,89.80
2023-03-10T14:21:32.507Z,89.90
2023-03-10T14:24:07.732Z,90.00
2023-03-10T14:26:39.687Z,90.00
2023-03-10T14:29:18.050Z,90.00
2023-03-10T14:31:53.833Z,90.00
2023-03-10T14:34:23.188Z,90.00
2023-03-10T14:36:52.722Z,89.90
2023-03-10T14:39:53.829Z,90.00
2023-03-10T14:42:42.123Z,89.90
2023-03-10T14:45:27.429Z,90.00
2023-03-10T14:48:02.263Z,90.10
2023-03-10T14:50:32.231Z,90.00
2023-03-10T14:53:01.580Z,90.00
2023-03-10T14:55:31.224Z,90.00
2023-03-10T14:58:21.379Z,89.90
2023-03-10T15:00:50.561Z,89.80
2023-03-10T15:03:21.633Z,89.90
2023-03-10T15:05:51.012Z,89.90
2023-03-10T15:08:20.536Z,90.10
2023-03-10T15:10:51.569Z,90.00
2023-03-10T15:13:24.144Z,89.90
2023-03-10T15:15:54.348Z,89.80
2023-03-10T15:18:26.345Z,89.70
2023-03-10T15:20:57.455Z,89.70
2023-03-10T15:23:28.663Z,89.70
2023-03-10T15:25:59.424Z,89.80
2023-03-10T15:28:28.890Z,89.80
2023-03-10T15:30:58.218Z,89.80
2023-03-10T15:33:27.697Z,89.70
2023-03-10T15:35:59.149Z,89.70
2023-03-10T15:38:28.630Z,89.70
2023-03-10T15:41:15.369Z,89.70
2023-03-10T15:43:44.989Z,89.70
2023-03-10T15:46:15.002Z,89.90
2023-03-10T15:52:14.037Z,89.70
2023-03-10T15:54:43.581Z,89.80
2023-03-10T15:57:13.636Z,89.80
2023-03-10T15:59:46.437Z,89.90
2023-03-10T16:02:15.986Z,89.60
2023-03-10T16:04:47.379Z,89.60
2023-03-10T16:07:17.116Z,89.80
2023-03-10T16:09:47.401Z,89.90
2023-03-10T16:12:16.017Z,89.80
2023-03-10T16:14:45.312Z,89.70
2023-03-10T16:17:14.685Z,89.60
2023-03-10T16:19:44.440Z,89.60
2023-03-10T16:22:13.836Z,89.80
2023-03-10T16:24:43.964Z,89.70
2023-03-10T16:27:13.860Z,89.70
2023-03-10T16:29:43.285Z,89.80
2023-03-10T16:32:14.099Z,89.70
2023-03-10T16:34:43.527Z,89.80
2023-03-10T16:37:12.996Z,89.80
2023-03-10T16:39:43.298Z,89.70
2023-03-10T16:42:11.845Z,89.80
2023-03-10T16:44:52.627Z,89.80
2023-03-10T16:50:29.585Z,89.80
2023-03-10T17:04:53.336Z,89.90
2023-03-10T17:07:34.848Z,89.80
2023-03-10T17:10:19.163Z,89.80
2023-03-10T17:13:01.392Z,89.80
2023-03-10T17:15:47.092Z,90.00
2023-03-10T17:24:35.188Z,90.00
2023-03-10T18:10:14.235Z,89.90
2023-03-10T18:12:43.795Z,90.10
2023-03-10T18:15:13.544Z,90.10
2023-03-10T18:17:43.049Z,90.10
2023-03-10T18:20:49.542Z,90.20
2023-03-10T18:23:51.896Z,90.20
2023-03-10T18:26:27.402Z,90.10
2023-03-10T18:29:05.179Z,90.30
2023-03-10T18:31:37.328Z,90.20
2023-03-10T18:37:19.669Z,90.20
2023-03-10T18:39:52.330Z,90.30
2023-03-10T18:42:23.275Z,90.30
2023-03-10T18:44:53.252Z,90.50
2023-03-10T18:47:23.091Z,90.30
2023-03-10T18:49:52.456Z,90.20
2023-03-10T18:52:21.940Z,90.00
2023-03-10T18:54:51.402Z,90.10
2023-03-10T18:57:21.089Z,90.10
2023-03-10T18:59:51.773Z,90.10
2023-03-10T19:02:21.138Z,90.20
2023-03-10T19:04:51.207Z,90.10
2023-03-10T19:07:23.405Z,90.30
2023-03-10T19:09:57.762Z,90.00
2023-03-10T19:12:33.318Z,90.10
2023-03-10T19:19:22.533Z,90.40
2023-03-10T19:22:15.039Z,90.40
2023-03-10T19:25:05.516Z,90.30
2023-03-10T19:27:46.753Z,90.20
2023-03-10T19:30:28.129Z,90.30
2023-03-10T19:32:57.568Z,90.30
2023-03-10T19:36:51.124Z,90.10
2023-03-10T19:38:40.151Z,90.20
2023-03-10T20:01:13.872Z,90.30
2023-03-10T20:03:57.888Z,90.30
2023-03-10T20:09:46.018Z,90.30
2023-03-10T20:12:24.358Z,90.20
2023-03-10T20:15:09.131Z,90.20
2023-03-10T20:17:52.608Z,90.30
2023-03-10T20:20:33.720Z,90.30
2023-03-10T20:23:25.399Z,90.40
2023-03-10T20:26:10.604Z,90.50
2023-03-10T20:28:53.629Z,90.40
2023-03-10T20:31:32.658Z,90.30
2023-03-10T20:34:11.855Z,90.40
2023-03-10T20:37:03.086Z,90.40
2023-03-10T20:39:51.671Z,90.40
2023-03-10T20:42:29.516Z,90.40
2023-03-10T20:45:12.566Z,90.30
2023-03-10T20:48:06.940Z,90.60
2023-03-10T20:53:56.409Z,90.50
2023-03-10T20:59:35.596Z,90.60
2023-03-10T21:02:10.062Z,90.60
2023-03-10T21:05:01.429Z,90.50
2023-03-10T21:10:40.010Z,90.50
2023-03-10T21:13:26.244Z,90.50
2023-03-10T21:16:02.694Z,90.40
2023-03-10T21:21:29.209Z,90.60
2023-03-10T21:27:08.962Z,90.50
2023-03-10T21:29:48.556Z,90.70
2023-03-10T21:32:28.733Z,90.70
2023-03-10T21:35:09.982Z,90.90
2023-03-10T21:38:06.732Z,90.70
2023-03-10T21:49:41.646Z,90.70
2023-03-10T21:58:26.563Z,90.70
2023-03-10T22:04:11.930Z,90.60
2023-03-10T22:07:07.225Z,90.60
2023-03-10T22:13:00.030Z,90.60
2023-03-10T22:15:39.843Z,90.70
2023-03-10T22:18:33.434Z,90.70
2023-03-10T22:21:02.058Z,90.60
2023-03-10T22:23:31.420Z,90.70
2023-03-10T22:26:00.806Z,90.70
2023-03-10T22:28:30.288Z,90.70
2023-03-10T22:30:59.975Z,90.70
2023-03-10T22:33:29.454Z,90.70
2023-03-10T22:36:01.943Z,90.70
2023-03-10T22:38:31.323Z,90.70
2023-03-10T22:41:01.062Z,90.80
2023-03-10T22:43:30.624Z,90.80
2023-03-10T22:46:00.002Z,90.70
2023-03-10T22:48:29.465Z,90.80
2023-03-10T22:50:58.803Z,90.70
2023-03-10T22:53:28.450Z,90.70
2023-03-10T22:55:57.922Z,90.70
2023-03-10T22:58:28.711Z,90.70
2023-03-10T23:00:58.129Z,90.80
2023-03-10T23:03:31.796Z,90.80
2023-03-10T23:06:06.426Z,90.80
2023-03-10T23:08:41.894Z,90.80
2023-03-10T23:11:16.013Z,90.90
2023-03-10T23:13:50.400Z,90.70
2023-03-10T23:16:39.563Z,90.70
2023-03-10T23:19:09.330Z,90.60
2023-03-10T23:21:38.995Z,90.80
2023-03-10T23:24:08.597Z,90.90
2023-03-10T23:26:38.104Z,90.90
2023-03-10T23:29:07.523Z,90.80
2023-03-10T23:31:37.886Z,90.80
2023-03-10T23:34:07.454Z,90.90
2023-03-10T23:36:36.960Z,90.80
2023-03-10T23:39:07.552Z,90.90
2023-03-10T23:41:37.224Z,90.90
2023-03-10T23:44:25.997Z,90.90
2023-03-10T23:46:55.525Z,90.90
2023-03-10T23:49:25.005Z,90.80
2023-03-10T23:51:54.460Z,90.90
2023-03-10T23:54:24.205Z,91.10
2023-03-10T23:56:53.614Z,91.10
2023-03-10T23:59:24.446Z,91.00
